Latest Weather Observations for Dunalley

IDT60801

Issued at 10:32 am EST Sunday 24 July 2016 (issued every 30 minutes, with the page automatically refreshed every 10 minutes)

About weather observations | Map of weather stations | Latest weather observations for TAS | Other Formats
Station Details ID: 094254 Name: DUNALLEY (STROUD POINT) Lat: -42.90 Lon: 147.79 Height: 12.43 m
Data from the previous 72 hours. | See also: Recent months at Dunalley
Date/Time
EST
Temp
°C
App
Temp
°C
Dew
Point
°C
Rel
Hum
%
Delta-T
°C
Wind Press
QNH
hPa
Press
MSL
hPa
Rain since
9am
mm
Dir  Spd
km/h
Gust
km/h
Spd
kts
Gust
kts
24/10:30am 7.8 2.1 0.8 61 2.8 NW 20 28 11 15 1004.9 1004.9 0.0
24/10:00am 7.0 1.3 0.7 64 2.5 NW 20 28 11 15 1004.9 1004.9 0.0
24/09:30am 6.2 0.1 0.1 65 2.4 NW 22 30 12 16 1004.8 1004.8 0.0
24/09:00am 5.8 -0.4 0.0 66 2.2 NW 22 30 12 16 1004.9 1004.9 2.0
24/08:30am 5.3 -0.9 -0.3 67 2.1 NW 22 30 12 16 1004.9 1004.9 2.0
24/08:00am 5.1 -0.8 -0.5 67 2.1 NW 20 32 11 17 1004.8 1004.8 2.0
24/07:30am 4.9 -1.3 -0.5 68 2.0 NW 22 30 12 16 1004.6 1004.6 2.0
24/07:00am 5.0 -0.7 -0.4 68 2.0 NW 19 24 10 13 1004.5 1004.5 2.0
24/06:30am 4.5 -1.4 -0.5 70 1.9 NW 20 30 11 16 1004.3 1004.3 2.0
24/06:00am 4.3 -1.0 -0.7 70 1.9 NW 17 28 9 15 1004.1 1004.1 2.0
24/05:30am 4.0 -0.6 -1.4 68 2.0 NW 13 20 7 11 1003.8 1003.8 2.0
24/05:00am 4.3 -2.8 -1.3 67 2.1 NW 26 35 14 19 1003.8 1003.8 2.0
24/04:30am 4.4 -1.6 -1.2 67 2.1 NW 20 30 11 16 1003.8 1003.8 2.0
24/04:00am 4.6 -2.1 -1.2 66 2.1 WNW 24 32 13 17 1003.7 1003.7 2.0
24/03:30am 4.5 -2.7 -1.7 64 2.2 NW 26 33 14 18 1003.5 1003.5 2.0
24/03:00am 4.2 -2.2 -1.8 65 2.2 NW 22 32 12 17 1003.4 1003.4 2.0
24/02:30am 3.9 -2.1 -1.9 66 2.1 NW 20 30 11 16 1003.6 1003.6 2.0
24/02:00am 3.7 -2.7 -1.6 68 1.9 NW 22 30 12 16 1003.7 1003.7 2.0
24/01:30am 3.5 -2.3 -1.6 69 1.8 NW 19 28 10 15 1003.5 1003.5 2.0
24/01:00am 4.1 -2.7 -1.7 66 2.1 WNW 24 33 13 18 1003.4 1003.4 2.0
24/12:30am 4.2 -2.9 -1.6 66 2.1 WNW 26 33 14 18 1003.1 1003.1 2.0
24/12:00am 3.7 -3.0 -1.3 70 1.8 WNW 24 30 13 16 1002.8 1002.8 2.0
 
Date/Time
EST
Temp
°C
App
Temp
°C
Dew
Point
°C
Rel
Hum
%
Delta-T
°C
Wind Press
QNH
hPa
Press
MSL
hPa
Rain since
9am
mm
Dir  Spd
km/h
Gust
km/h
Spd
kts
Gust
kts
23/11:30pm 4.2 -2.5 -1.2 68 2.0 W 24 35 13 19 1002.8 1002.8 2.0
23/11:02pm 4.2 -3.2 -0.4 72 1.7 W 28 50 15 27 1002.4 1002.4 2.0
23/11:00pm 3.6 -3.5 -1.2 71 1.8 WNW 26 35 14 19 1002.5 1002.5 2.0
23/10:30pm 4.3 -5.3 1.2 80 1.2 W 41 50 22 27 1002.0 1002.0 2.0
23/10:15pm 5.0 -6.6 1.7 79 1.3 WSW 52 63 28 34 1001.7 1001.7 2.0
23/10:03pm 4.7 -8.2 1.7 81 1.2 WSW 59 89 32 48 1001.6 1001.6 2.0
23/10:02pm 4.7 -7.9 1.4 79 1.3 WSW 57 89 31 48 1001.5 1001.5 2.0
23/10:00pm 5.5 -6.0 2.2 79 1.3 W 52 78 28 42 1001.5 1001.5 2.0
23/09:59pm 5.3 -6.0 1.4 76 1.5 W 50 72 27 39 1001.5 1001.5 2.0
23/09:30pm 5.3 -5.7 0.5 71 1.9 WSW 48 57 26 31 1000.6 1000.6 2.0
23/09:00pm 4.8 -7.3 0.9 76 1.5 WSW 54 69 29 37 1000.2 1000.2 2.0
23/08:30pm 4.8 -8.0 0.2 72 1.8 W 57 72 31 39 999.4 999.4 2.0
23/08:02pm 5.0 -7.6 1.1 76 1.5 W 57 78 31 42 998.8 998.8 2.0
23/08:00pm 5.2 -6.9 1.1 75 1.6 W 54 70 29 38 998.9 998.9 2.0
23/07:30pm 4.8 -5.2 1.1 77 1.4 W 43 61 23 33 998.5 998.5 2.0
23/07:03pm 4.4 -9.5 0.6 76 1.5 WSW 63 82 34 44 997.6 997.6 1.8
23/07:00pm 4.8 -9.6 2.0 82 1.1 WSW 67 82 36 44 997.6 997.6 1.8
23/06:30pm 4.4 -8.9 1.6 82 1.1 W 61 91 33 49 997.0 997.0 1.6
23/06:13pm 4.7 -8.3 1.4 79 1.3 W 59 83 32 45 996.0 996.0 1.6
23/06:00pm 4.2 -7.1 1.2 81 1.2 W 50 61 27 33 996.2 996.2 1.6
23/05:30pm 4.4 -8.1 1.8 83 1.0 W 57 70 31 38 995.7 995.7 1.6
23/05:12pm 4.6 -7.4 1.8 82 1.1 W 54 72 29 39 994.8 994.8 1.6
23/05:00pm 4.1 -6.1 1.0 80 1.2 W 44 57 24 31 994.7 994.7 1.6
23/04:34pm 4.4 -7.2 1.8 83 1.0 WSW 52 70 28 38 994.3 994.3 1.4
23/04:30pm 4.6 -7.0 1.6 81 1.2 WSW 52 69 28 37 994.4 994.4 1.2
23/04:00pm 4.7 -6.5 1.9 82 1.1 W 50 67 27 36 993.4 993.4 1.2
23/03:30pm 4.6 -5.8 1.8 82 1.1 W 46 57 25 31 992.7 992.7 1.2
23/03:18pm 4.0 -6.8 2.0 87 0.8 WSW 48 59 26 32 992.4 992.4 1.2
23/03:00pm 3.0 -8.2 1.7 91 0.5 SW 50 61 27 33 992.0 992.0 1.2
23/02:51pm 4.8 -4.3 1.7 80 1.2 WSW 39 57 21 31 991.7 991.7 0.6
23/02:30pm 5.2 -4.6 2.2 81 1.2 W 43 54 23 29 991.1 991.1 0.6
23/02:00pm 4.5 -6.3 2.2 85 0.9 W 48 57 26 31 990.2 990.2 0.6
23/01:57pm 4.6 -6.5 2.5 86 0.8 W 50 65 27 35 990.1 990.1 0.6
23/01:39pm 4.2 -10.3 1.4 82 1.1 WSW 67 85 36 46 989.8 989.8 0.4
23/01:30pm 5.6 -9.0 0.8 71 1.9 WSW 67 83 36 45 989.6 989.6 0.4
23/01:16pm 5.6 -6.8 1.5 75 1.6 WSW 56 78 30 42 989.3 989.3 0.4
23/01:00pm 5.2 -6.3 2.2 81 1.2 W 52 65 28 35 989.1 989.1 0.4
23/12:30pm 4.3 -5.7 2.3 87 0.8 W 44 61 24 33 988.9 988.9 0.4
23/12:24pm 4.2 -3.9 1.2 81 1.2 W 33 56 18 30 989.1 989.1 0.4
23/12:00pm 5.0 -5.1 1.3 77 1.5 W 44 63 24 34 988.6 988.6 0.2
23/11:59am 4.8 -5.8 0.9 76 1.5 W 46 65 25 35 988.5 988.5 0.2
23/11:36am 4.8 -6.9 0.8 75 1.5 W 52 74 28 40 988.1 988.1 0.2
23/11:30am 5.4 -3.9 0.4 70 1.9 W 39 63 21 34 988.3 988.3 0.2
23/11:09am 5.9 -1.7 0.7 69 2.0 WNW 30 50 16 27 988.1 988.1 0.2
23/11:00am 5.2 -3.6 1.5 77 1.5 W 37 50 20 27 988.2 988.2 0.2
23/10:30am 3.8 -5.8 1.4 84 0.9 WSW 41 69 22 37 988.5 988.5 0.2
23/10:26am 3.9 -5.3 1.3 83 1.0 W 39 65 21 35 988.5 988.5 0.0
23/10:25am 4.4 -4.8 1.4 81 1.2 W 39 54 21 29 988.6 988.6 0.0
23/10:22am 4.3 -3.8 0.8 78 1.3 WNW 33 54 18 29 988.2 988.2 0.0
23/10:00am 5.1 -2.1 1.0 75 1.6 WNW 28 41 15 22 987.7 987.7 0.0
23/09:48am 4.7 -2.9 0.8 76 1.5 W 30 43 16 23 987.2 987.2 0.0
23/09:30am 5.4 -4.1 1.9 78 1.4 WSW 41 52 22 28 987.0 987.0 0.0
23/09:07am 5.7 -2.3 1.4 74 1.7 W 33 57 18 31 986.7 986.7 0.0
23/09:00am 5.7 -4.3 0.9 71 1.9 WSW 43 54 23 29 986.5 986.5 1.4
23/08:30am 5.5 -4.6 1.4 75 1.6 W 44 52 24 28 986.0 986.0 1.4
23/08:00am 5.1 -4.4 1.8 79 1.3 WSW 41 48 22 26 985.3 985.3 1.4
23/07:46am 5.3 -6.5 2.5 82 1.1 WSW 54 72 29 39 985.3 985.3 1.4
23/07:37am 5.5 -6.8 1.8 77 1.5 WSW 56 72 30 39 985.2 985.2 1.4
23/07:30am 5.9 -4.2 1.8 75 1.6 WSW 44 52 24 28 985.2 985.2 1.4
23/07:00am 5.9 -3.5 2.4 78 1.5 WSW 41 50 22 27 984.7 984.7 1.4
23/06:45am 5.8 -3.3 2.1 77 1.5 W 39 57 21 31 984.0 984.0 1.4
23/06:30am 6.0 -3.9 3.0 81 1.2 WSW 44 54 24 29 984.2 984.2 1.2
23/06:24am 5.6 -3.8 2.6 81 1.2 W 41 54 22 29 984.1 984.1 1.2
23/06:10am 5.7 -1.6 2.4 79 1.3 WNW 30 56 16 30 983.9 983.9 1.0
23/06:00am 6.3 -1.1 1.8 73 1.8 WNW 30 43 16 23 983.7 983.7 0.6
23/05:30am 6.5 -1.3 1.4 70 2.0 WNW 32 48 17 26 983.2 983.2 0.6
23/05:00am 6.5 -0.6 1.2 69 2.1 WNW 28 41 15 22 982.6 982.6 0.6
23/04:30am 6.6 0.6 0.9 67 2.3 WNW 22 33 12 18 982.5 982.5 0.6
23/04:00am 6.8 0.8 0.9 66 2.4 WNW 22 33 12 18 982.4 982.4 0.6
23/03:30am 6.2 1.8 0.3 66 2.3 NW 13 24 7 13 982.5 982.5 0.6
23/03:00am 6.5 1.7 0.2 64 2.5 NW 15 22 8 12 982.8 982.8 0.6
23/02:30am 6.1 0.6 0.4 67 2.2 WNW 19 26 10 14 983.3 983.3 0.6
23/02:00am 6.1 0.5 0.2 66 2.3 NW 19 24 10 13 983.4 983.4 0.6
23/01:30am 6.1 0.9 0.0 65 2.3 NW 17 24 9 13 984.0 984.0 0.6
23/01:00am 6.5 1.3 -0.2 62 2.6 NNW 17 22 9 12 984.6 984.6 0.6
23/12:30am 6.2 0.6 -0.1 64 2.4 NNW 19 24 10 13 985.1 985.1 0.6
23/12:00am 6.0 0.5 0.3 67 2.2 NNW 19 26 10 14 985.3 985.3 0.6
 
Date/Time
EST
Temp
°C
App
Temp
°C
Dew
Point
°C
Rel
Hum
%
Delta-T
°C
Wind Press
QNH
hPa
Press
MSL
hPa
Rain since
9am
mm
Dir  Spd
km/h
Gust
km/h
Spd
kts
Gust
kts
22/11:30pm 6.4 0.9 0.5 66 2.3 NW 19 24 10 13 985.3 985.3 0.6
22/11:00pm 6.1 1.4 1.1 70 2.0 NW 15 24 8 13 985.5 985.5 0.6
22/10:30pm 6.7 0.8 1.4 69 2.1 WNW 22 33 12 18 985.1 985.1 0.6
22/10:00pm 6.9 1.4 1.6 69 2.2 WNW 20 28 11 15 985.2 985.2 0.6
22/09:30pm 7.7 1.5 2.0 67 2.3 W 24 33 13 18 985.5 985.5 0.6
22/09:00pm 8.5 0.9 4.1 74 1.9 WSW 33 37 18 20 985.9 985.9 0.6
22/08:30pm 8.5 0.2 4.1 74 1.9 WSW 37 44 20 24 985.5 985.5 0.6
22/08:00pm 8.9 -0.7 3.5 69 2.4 WSW 43 50 23 27 984.7 984.7 0.6
22/07:30pm 8.8 -0.8 3.2 68 2.4 W 43 54 23 29 984.0 984.0 0.6
22/07:02pm 7.9 1.4 4.5 79 1.5 W 28 50 15 27 983.6 983.6 0.6
22/07:00pm 7.8 1.7 4.7 81 1.4 W 26 50 14 27 983.7 983.7 0.6
22/06:56pm 8.2 1.7 4.8 79 1.5 WNW 28 50 15 27 983.5 983.5 0.6
22/06:30pm 8.5 0.5 3.8 72 2.0 WNW 35 48 19 26 983.4 983.4 0.6
22/06:00pm 8.5 -1.7 5.1 79 1.5 W 48 69 26 37 982.8 982.8 0.6
22/05:30pm 9.3 0.2 3.9 69 2.4 WNW 41 70 22 38 982.1 982.1 0.0
22/05:00pm 10.5 0.8 3.8 63 3.0 WNW 44 76 24 41 980.3 980.3 0.0
22/04:58pm 10.8 1.7 3.8 62 3.1 WNW 41 74 22 40 980.4 980.4 0.0
22/04:30pm 11.6 4.1 4.6 62 3.2 WNW 33 54 18 29 979.0 979.0 0.0
22/04:00pm 11.9 4.5 5.1 63 3.2 WNW 33 56 18 30 978.8 978.8 0.0
22/03:30pm 12.1 5.1 5.9 66 2.9 WNW 32 46 17 25 978.9 978.9 0.0
22/03:00pm 12.5 5.9 6.1 65 3.1 WNW 30 39 16 21 979.0 979.0 0.0
22/02:30pm 12.2 6.6 5.6 64 3.1 NW 24 43 13 23 978.1 978.1 0.0
22/02:00pm 12.5 2.4 5.9 64 3.2 NW 48 67 26 36 978.9 978.9 0.0
22/01:50pm 13.5 3.4 5.7 59 3.7 NW 48 74 26 40 979.5 979.5 0.0
22/01:44pm 14.5 6.8 5.3 54 4.3 NW 35 63 19 34 979.2 979.2 0.0
22/01:30pm 16.3 10.7 5.3 48 5.3 NW 24 39 13 21 979.0 979.0 0.0
22/01:00pm 16.1 10.1 5.1 48 5.3 NW 26 37 14 20 979.3 979.3 0.0
22/12:30pm 15.9 10.8 5.8 51 4.9 WNW 22 33 12 18 980.3 980.3 0.0
22/12:00pm 15.6 8.6 4.3 47 5.3 NW 30 57 16 31 981.0 981.0 0.0
22/11:58am 15.7 9.3 5.0 49 5.1 NW 28 57 15 31 981.0 981.0 0.0
22/11:30am 15.4 9.6 6.2 54 4.4 NW 26 41 14 22 982.0 982.0 0.0
22/11:00am 15.4 8.4 6.2 54 4.5 WNW 32 52 17 28 982.8 982.8 0.0
22/10:43am 15.4 9.3 6.4 55 4.4 WNW 28 48 15 26 983.1 983.1 0.0
22/10:30am 15.4 8.4 6.9 57 4.2 WNW 33 46 18 25 983.2 983.2 0.0
22/10:00am 15.3 8.5 7.6 60 3.9 WNW 33 52 18 28 983.5 983.5 0.0
22/09:32am 15.2 8.6 7.7 61 3.7 WNW 32 50 17 27 983.7 983.7 0.0
22/09:30am 15.1 8.3 7.6 61 3.7 WNW 33 50 18 27 983.7 983.7 0.0
22/09:25am 15.1 8.4 7.4 60 3.8 WNW 32 50 17 27 983.7 983.7 0.0
22/09:00am 15.2 9.8 8.2 63 3.6 WNW 26 43 14 23 983.9 983.9 4.4
22/08:30am 15.1 10.6 8.6 65 3.3 NW 22 39 12 21 984.1 984.1 4.4
22/08:00am 14.3 11.0 9.7 74 2.4 NNW 17 26 9 14 984.2 984.2 4.4
22/07:30am 14.7 9.4 9.9 73 2.5 N 28 46 15 25 984.0 984.0 4.4
22/07:00am 14.0 9.2 10.4 79 1.9 N 26 43 14 23 984.4 984.4 4.4
22/06:30am 13.8 8.6 10.2 79 1.9 NNE 28 41 15 22 984.5 984.5 4.4
22/06:16am 13.2 6.0 10.4 83 1.5 NNE 39 57 21 31 984.9 984.9 4.4
22/06:00am 13.1 5.4 10.3 83 1.5 NNE 41 57 22 31 984.8 984.8 4.2
22/05:30am 13.0 3.5 9.8 81 1.6 N 50 70 27 38 986.1 986.1 3.0
22/05:00am 12.7 1.6 10.1 84 1.4 NNE 59 82 32 44 985.9 985.9 2.0
22/04:47am 13.1 4.2 9.2 77 2.0 NNE 46 80 25 43 986.8 986.8 1.4
22/04:38am 13.2 7.6 8.7 74 2.3 N 28 54 15 29 988.1 988.1 1.4
22/04:30am 12.7 7.4 8.4 75 2.1 N 26 50 14 27 989.0 989.0 1.4
22/04:21am 13.3 7.7 8.8 74 2.3 N 28 46 15 25 989.4 989.4 1.2
22/04:00am 12.9 7.7 8.8 76 2.1 N 26 39 14 21 990.2 990.2 1.2
22/03:31am 12.8 7.3 9.1 78 1.9 N 28 52 15 28 991.3 991.3 1.0
22/03:30am 12.8 7.7 9.1 78 1.9 N 26 52 14 28 991.2 991.2 1.0
22/03:26am 12.7 9.0 9.3 80 1.7 N 19 43 10 23 991.4 991.4 0.8
22/03:00am 12.5 8.2 9.3 81 1.6 NNE 22 37 12 20 993.4 993.4 0.4
22/02:30am 12.6 8.2 9.1 79 1.8 NNE 22 37 12 20 994.8 994.8 0.2
22/02:00am 11.9 8.8 8.7 81 1.6 N 15 20 8 11 995.5 995.5 0.0
22/01:30am 11.9 7.8 8.0 77 1.9 NNE 19 28 10 15 996.3 996.3 0.0
22/01:00am 11.9 7.2 7.6 75 2.1 NNE 22 32 12 17 997.3 997.3 0.0
22/12:30am 11.6 8.0 6.9 73 2.2 NNE 15 22 8 12 998.4 998.4 0.0
22/12:00am 10.9 8.5 6.8 76 2.0 N 9 13 5 7 999.3 999.3 0.0
 
Date/Time
EST
Temp
°C
App
Temp
°C
Dew
Point
°C
Rel
Hum
%
Delta-T
°C
Wind Press
QNH
hPa
Press
MSL
hPa
Rain since
9am
mm
Dir  Spd
km/h
Gust
km/h
Spd
kts
Gust
kts
21/11:30pm 11.0 8.5 6.4 73 2.2 N 9 20 5 11 1000.6 1000.6 0.0
21/11:00pm 9.9 6.7 6.8 81 1.5 NE 13 20 7 11 1001.0 1001.0 0.0
21/10:30pm 10.1 7.6 6.6 79 1.6 N 9 17 5 9 1001.9 1001.9 0.0
21/10:00pm 10.5 6.8 6.1 74 2.1 N 15 20 8 11 1002.5 1002.5 0.0
21/09:30pm 10.1 7.9 6.1 76 1.9 NNE 7 13 4 7 1003.2 1003.2 0.0
21/09:00pm 9.2 5.0 5.9 80 1.5 NE 17 19 9 10 1003.3 1003.3 0.0
21/08:30pm 9.7 5.2 5.9 77 1.7 ENE 19 22 10 12 1004.0 1004.0 0.0
21/08:00pm 10.1 7.4 5.5 73 2.1 NNE 9 15 5 8 1004.7 1004.7 0.0
21/07:30pm 10.7 7.6 5.5 70 2.4 N 11 19 6 10 1005.4 1005.4 0.0
21/07:00pm 10.8 8.3 4.9 67 2.7 N 7 13 4 7 1005.8 1005.8 0.0
21/06:30pm 11.0 7.4 5.1 67 2.7 N 13 17 7 9 1006.2 1006.2 0.0
21/06:00pm 11.0 7.0 4.9 66 2.8 N 15 20 8 11 1006.2 1006.2 0.0
21/05:30pm 11.7 9.1 4.2 60 3.4 N 7 15 4 8 1006.8 1006.8 0.0
21/05:00pm 11.3 8.8 4.7 64 3.0 N 7 11 4 6 1006.9 1006.9 0.0
21/04:30pm 11.3 8.1 5.0 65 2.9 N 11 19 6 10 1007.5 1007.5 0.0
21/04:00pm 11.4 8.7 5.5 67 2.7 N 9 13 5 7 1008.0 1008.0 0.0
21/03:30pm 11.8 7.3 4.1 59 3.5 N 17 22 9 12 1008.3 1008.3 0.0
21/03:00pm 11.8 9.6 6.1 68 2.7 NW 7 13 4 7 1008.6 1008.6 0.0
21/02:30pm 14.0 10.4 3.2 48 4.8 NW 11 17 6 9 1009.0 1009.0 0.0
21/02:00pm 13.8 9.2 3.6 50 4.6 WNW 17 20 9 11 1009.7 1009.7 0.0
21/01:30pm 13.9 10.4 3.4 49 4.7 NW 11 20 6 11 1009.9 1009.9 0.0
21/01:00pm 13.4 8.7 3.2 50 4.6 WNW 17 22 9 12 1010.5 1010.6 0.0
21/12:30pm 13.5 8.9 3.6 51 4.5 NW 17 22 9 12 1011.4 1011.5 0.0
21/12:00pm 13.3 9.8 3.7 52 4.3 NW 11 17 6 9 1012.0 1012.1 0.0
21/11:30am 12.8 9.0 4.0 55 4.0 NW 13 20 7 11 1012.8 1012.9 0.0
21/11:00am 12.3 9.3 4.3 58 3.6 NNW 9 15 5 8 1013.8 1013.9 0.0

Other Formats:

Comma delimited format used in spreadsheet applications
http://www.bom.gov.au/fwo/IDT60801/IDT60801.94951.axf

JavaScript Object Notation format (JSON) in row-major order
http://www.bom.gov.au/fwo/IDT60801/IDT60801.94951.json